Plymouth Light

42° 00' 12"N, 70° 36' 04"W, Elevation 54 ft.
Eastern Time

Hourly observations for the last 72 hours

Date Time Temperature (°F) Humi-
dity

(%)
Wind
(mph)
Pressure Rain (in) Sun
(W/m2)
ET
(in)
Air Dew 6 Hour 1 Hr 3 Hr 6 Hr Day
Alt
(in)
Sea
Level

(mb)
Max Min
18 09:00 51.1 44.8 79 NW 11 G 19 29.61 1002.8 0.00 309 0.014
18 08:00 48.7 44.1 51.0 48.0 84 W 12 G 17 29.59 1002.0 0.00 116 0.012
18 07:00 48.4 44.4 86 WNW 13 G 17 29.55 1000.7 0.00 7 0.011
18 06:00 48.2 43.9 85 WNW 11 G 17 29.51 999.5 0.00 0 0.010
18 05:00 49.0 44.1 83 WNW 15 G 22 29.48 998.4 0.00 0 0.008
18 04:00 49.5 43.9 81 W 12 G 17 29.46 997.6 0.00 0 0.006
18 03:00 50.3 44.0 79 W 13 G 20 29.44 996.9 0.00 0 0.004
18 02:00 50.9 44.3 52.5 50.9 78 WNW 14 G 19 29.42 996.1 0.00 0 0.002
18 01:00 51.6 45.0 78 WNW 12 G 18 29.39 995.4 0.00 0 0.000
18 00:00 52.0 45.0 77 WNW 16 G 22 29.36 994.2 1.25 0 0.108
17 23:00 51.8 45.2 78 WNW 16 G 22 29.33 993.2 1.23 0 0.105
17 22:00 51.9 44.6 76 WNW 17 G 26 29.29 991.9 1.23 0 0.102
17 21:00 52.1 45.1 77 WNW 17 G 26 29.25 990.5 1.23 0 0.099
17 20:00 52.5 45.5 55.8 52.4 77 W 20 G 29 29.21 989.2 1.23 0 0.095
17 19:00 52.8 45.5 76 W 21 G 32 29.17 987.9 1.23 0 0.091
17 18:00 52.8 44.7 74 W 25 G 35 29.13 986.5 1.23 0 0.086
17 17:00 53.5 45.1 73 W 23 G 34 29.09 985.2 1.23 58 0.078
17 16:00 54.7 46.6 74 W 19 G 38 29.06 984.0 1.23 102 0.073
17 15:00 55.4 46.2 71 W 15 G 29 29.03 983.2 1.23 105 0.066
17 14:00 55.7 45.7 55.9 52.2 69 W 19 G 36 29.02 982.7 1.23 113 0.058
17 13:00 55.1 46.2 72 W 19 G 40 29.01 982.6 1.23 139 0.051
17 12:00 55.3 45.7 70 W 18 G 31 29.01 982.4 1.23 125 0.041
17 11:00 54.2 46.1 74 W 17 G 44 29.00 982.2 1.23 311 0.031
17 10:00 53.4 46.4 77 WSW 26 G 45 28.98 981.4 1.23 519 0.021
17 09:00 52.8 45.5 76 W 24 G 42 28.98 981.5 1.23 309 0.013
17 08:00 52.2 45.6 62.0 52.0 78 W 23 G 42 28.97 980.9 0.20 1.23 81 0.009
17 07:00 52.6 47.6 83 WSW 26 G 42 28.91 978.9 1.23 5 0.006
17 06:00 53.4 49.9 88 WSW 29 G 47 28.85 977.1 1.23 0 0.005
17 05:00 58.3 57.2 96 SW 23 G 34 28.78 974.8 0.20 1.23 0 0.004
17 04:00 59.7 58.3 95 S 29 G 37 28.82 976.0 1.23 0 0.003
17 03:00 61.4 60.2 96 S 31 G 54 28.86 977.5 0.20 1.23 0 0.002
17 02:00 58.9 58.1 59.0 57.1 97 ESE 48 G 69 28.86 977.5 0.63 1.33 1.47 1.03 0 0.001
17 01:00 58.2 57.4 97 E 36 G 50 29.08 984.7 0.42 0.39 0 0.000
17 00:00 58.1 57.0 96 ESE 30 G 46 29.26 990.8 0.28 0.42 0 0.087
16 23:00 57.9 56.2 94 E 24 G 41 29.34 993.8 0.07 0.14 0.14 0 0.086
16 22:00 57.3 55.6 94 E 20 G 36 29.47 998.1 0.07 0.07 0 0.085
16 21:00 57.4 54.8 91 ESE 22 G 32 29.57 1001.4 0.00 0 0.084
16 20:00 57.1 54.8 57.2 55.8 92 SE 13 G 29 29.64 1003.8 0.00 0 0.083
16 19:00 56.6 54.0 91 ESE 22 G 31 29.68 1005.0 0.00 0 0.081
16 18:00 56.3 53.1 89 SE 19 G 32 29.74 1007.0 0.00 0 0.079
16 17:00 56.1 52.3 87 SE 17 G 27 29.79 1008.8 0.00 28 0.077
16 16:00 56.1 51.7 85 SE 17 G 24 29.83 1010.1 0.00 93 0.072
16 15:00 56.2 51.4 84 SE 17 G 24 29.86 1011.3 0.00 169 0.066
16 14:00 57.2 50.8 57.8 53.3 79 SSE 14 G 23 29.90 1012.5 0.00 287 0.058
16 13:00 57.1 48.9 74 SSE 11 G 19 29.91 1013.0 0.00 343 0.049
16 12:00 57.0 47.7 71 S 15 G 25 29.97 1014.8 0.00 345 0.036
16 11:00 57.0 48.4 73 SE 13 G 24 29.97 1014.8 0.00 566 0.024
16 10:00 57.1 49.3 75 S 7 G 15 29.98 1015.2 0.00 434 0.015
16 09:00 55.0 47.9 77 S 13 G 17 30.03 1016.9 0.00 309 0.009
16 08:00 53.3 48.6 54.2 50.4 84 S 12 G 15 30.02 1016.7 0.00 137 0.007
16 07:00 53.2 48.8 85 SSW 9 G 14 30.04 1017.2 0.00 9 0.006
16 06:00 51.3 47.6 87 SSW 7 G 12 30.04 1017.3 0.00 0 0.005
16 05:00 51.5 47.5 86 SSW 6 G 13 30.04 1017.4 0.00 0 0.004
16 04:00 51.0 46.7 85 SW 10 G 15 30.04 1017.3 0.00 0 0.003
16 03:00 51.9 47.2 84 SW 12 G 16 30.05 1017.8 0.00 0 0.002
16 02:00 52.9 47.9 53.9 51.4 83 SSW 10 G 15 30.05 1017.7 0.00 0 0.001
16 01:00 52.2 45.9 79 S 6 G 15 30.06 1017.9 0.00 0 0.000
16 00:00 52.6 45.9 78 S 6 G 11 30.06 1018.1 0.00 0 0.106
15 23:00 52.6 45.3 76 SSW 5 G 10 30.08 1018.7 0.00 0 0.105
15 22:00 51.7 45.4 79 SSW 6 G 8 30.08 1018.7 0.00 0 0.104
15 21:00 53.2 44.0 71 SSW 7 G 10 30.07 1018.5 0.00 0 0.102
15 20:00 53.8 46.1 56.5 53.4 75 SSW 8 G 10 30.06 1018.1 0.00 0 0.100
15 19:00 53.8 45.7 74 S 6 G 11 30.05 1017.8 0.00 0 0.098
15 18:00 54.1 45.3 72 S 6 G 10 30.04 1017.4 0.00 7 0.096
15 17:00 54.9 45.3 70 SE 4 G 8 30.03 1017.1 0.00 76 0.092
15 16:00 55.9 45.1 67 SE 5 G 8 30.05 1017.6 0.00 281 0.084
15 15:00 55.4 44.2 66 E 5 G 8 30.05 1017.8 0.00 427 0.073
15 14:00 56.1 44.9 56.3 48.9 66 ENE 6 G 10 30.07 1018.3 0.00 547 0.060
15 13:00 55.9 44.3 65 NNE 6 G 10 30.08 1018.7 0.00 606 0.046
15 12:00 54.8 43.3 65 NNE 12 G 15 30.09 1018.9 0.00 612 0.032
15 11:00 54.8 43.3 65 NNE 11 G 16 30.09 1019.1 0.00 561 0.020
15 10:00 54.0 45.2 72 N 5 G 10 30.09 1019.0 0.00 461 0.011

Data generated by WxSolution Version 1.9.1.1, Build 2017.11.27.